createdAt,value
2023-04-18T00:00:43.210Z,101282.80
2023-04-18T00:05:47.982Z,101279.55
2023-04-18T00:10:49.541Z,101282.31
2023-04-18T00:15:55.246Z,101282.48
2023-04-18T00:20:57.014Z,101279.94
2023-04-18T00:25:58.557Z,101278.39
2023-04-18T00:31:00.401Z,101280.98
2023-04-18T00:36:02.265Z,101277.21
2023-04-18T00:41:03.825Z,101277.88
2023-04-18T00:46:06.331Z,101279.76
2023-04-18T00:51:10.083Z,101273.56
2023-04-18T00:56:12.483Z,101279.25
2023-04-18T01:01:14.140Z,101276.50
2023-04-18T01:06:16.181Z,101274.60
2023-04-18T01:11:17.680Z,101276.01
2023-04-18T01:16:19.640Z,101271.02
2023-04-18T01:21:21.907Z,101269.65
2023-04-18T01:26:23.436Z,101270.35
2023-04-18T01:31:25.027Z,101271.89
2023-04-18T01:36:27.581Z,101272.40
2023-04-18T01:41:32.571Z,101269.31
2023-04-18T01:46:34.652Z,101271.10
2023-04-18T01:51:38.949Z,101267.52
2023-04-18T01:56:40.513Z,101270.13
2023-04-18T02:01:43.346Z,101269.28
2023-04-18T02:06:44.958Z,101269.98
2023-04-18T02:11:46.572Z,101267.60
2023-04-18T02:16:48.106Z,101265.00
2023-04-18T02:21:50.505Z,101258.29
2023-04-18T02:26:52.028Z,101256.23
2023-04-18T02:31:53.528Z,101254.00
2023-04-18T02:36:55.025Z,101252.11
2023-04-18T02:41:56.596Z,101252.11
2023-04-18T02:46:58.230Z,101256.21
2023-04-18T02:51:59.731Z,101257.77
2023-04-18T02:57:01.381Z,101258.60
2023-04-18T03:02:03.392Z,101263.41
2023-04-18T03:07:04.935Z,101273.73
2023-04-18T03:12:07.076Z,101272.86
2023-04-18T03:17:09.047Z,101278.90
2023-04-18T03:22:10.688Z,101278.05
2023-04-18T03:27:13.431Z,101279.27
2023-04-18T03:32:15.023Z,101277.53
2023-04-18T03:37:16.629Z,101280.47
2023-04-18T03:42:18.146Z,101277.90
2023-04-18T03:47:20.049Z,101283.75
2023-04-18T03:52:21.913Z,101287.02
2023-04-18T03:57:23.445Z,101287.86
2023-04-18T04:02:25.189Z,101295.38
2023-04-18T04:07:27.095Z,101289.98
2023-04-18T04:12:28.894Z,101292.70
2023-04-18T04:17:30.440Z,101294.05
2023-04-18T04:22:33.080Z,101295.38
2023-04-18T04:27:36.871Z,101296.86
2023-04-18T04:32:39.075Z,101299.77
2023-04-18T04:37:41.316Z,101300.92
2023-04-18T04:42:43.007Z,101298.30
2023-04-18T04:47:44.860Z,101297.23
2023-04-18T04:52:46.407Z,101304.90
2023-04-18T04:57:47.971Z,101303.98
2023-04-18T05:02:49.966Z,101308.67
2023-04-18T05:07:51.780Z,101307.66
2023-04-18T05:12:53.296Z,101304.50
2023-04-18T05:17:55.063Z,101307.61
2023-04-18T05:22:56.716Z,101314.07
2023-04-18T05:28:00.858Z,101316.61
2023-04-18T05:33:02.421Z,101314.73
2023-04-18T05:38:04.229Z,101316.88
2023-04-18T05:43:05.781Z,101318.48
2023-04-18T05:48:07.380Z,101320.64
2023-04-18T05:53:08.973Z,101326.68
2023-04-18T05:58:10.821Z,101327.65
2023-04-18T06:03:12.505Z,101328.91
2023-04-18T06:08:14.251Z,101324.63
2023-04-18T06:13:15.756Z,101324.07
2023-04-18T06:18:17.702Z,101325.16
2023-04-18T06:23:19.176Z,101320.83
2023-04-18T06:28:21.090Z,101318.40
2023-04-18T06:33:23.050Z,101325.57
2023-04-18T06:38:24.585Z,101331.62
2023-04-18T06:43:26.313Z,101335.75
2023-04-18T06:48:27.998Z,101338.06
2023-04-18T06:53:29.716Z,101339.05
2023-04-18T06:58:31.217Z,101342.06
2023-04-18T07:03:32.803Z,101342.89
2023-04-18T07:08:35.631Z,101350.15
2023-04-18T07:13:37.100Z,101347.01
2023-04-18T07:18:38.762Z,101345.08
2023-04-18T07:23:40.551Z,101348.06
2023-04-18T07:28:42.286Z,101353.83
2023-04-18T07:33:43.891Z,101351.86
2023-04-18T07:38:46.382Z,101352.92
2023-04-18T07:43:47.873Z,101348.65
2023-04-18T07:48:49.856Z,101349.02
2023-04-18T07:53:51.603Z,101346.61
2023-04-18T07:58:53.568Z,101354.55
2023-04-18T08:03:56.674Z,101354.27
2023-04-18T08:08:59.474Z,101352.82
2023-04-18T08:14:01.574Z,101350.92
2023-04-18T08:19:03.465Z,101351.84
2023-04-18T08:24:05.929Z,101355.99
2023-04-18T08:29:08.420Z,101355.23
2023-04-18T08:34:09.909Z,101352.93
2023-04-18T08:39:11.994Z,101358.23
2023-04-18T08:44:14.270Z,101354.56
2023-04-18T08:49:17.615Z,101351.55
2023-04-18T08:54:20.943Z,101346.63
2023-04-18T08:59:22.444Z,101346.22
2023-04-18T09:04:36.582Z,101341.92
2023-04-18T09:09:54.329Z,101342.05
2023-04-18T09:15:11.548Z,101335.77
2023-04-18T09:20:15.939Z,101331.28
2023-04-18T09:25:36.024Z,101324.02
2023-04-18T09:30:40.303Z,101320.80
2023-04-18T09:35:42.625Z,101314.73
2023-04-18T09:40:44.171Z,101314.21
2023-04-18T09:45:48.948Z,101311.42
2023-04-18T09:50:50.874Z,101309.35
2023-04-18T09:55:55.586Z,101306.81
2023-04-18T10:00:59.318Z,101299.05
2023-04-18T10:06:01.087Z,101295.43
2023-04-18T10:11:02.618Z,101288.30
2023-04-18T10:16:05.028Z,101282.73
2023-04-18T10:21:09.728Z,101281.81
2023-04-18T10:26:11.674Z,101277.92
2023-04-18T10:31:13.237Z,101273.20
2023-04-18T10:36:19.190Z,101274.67
2023-04-18T10:41:27.620Z,101278.11
2023-04-18T10:46:32.299Z,101270.60
2023-04-18T10:51:34.721Z,101266.02
2023-04-18T10:56:36.987Z,101261.02
2023-04-18T11:01:45.538Z,101260.36
2023-04-18T11:06:53.187Z,101263.85
2023-04-18T11:12:06.626Z,101262.73
2023-04-18T11:17:23.842Z,101263.70
2023-04-18T11:22:25.966Z,101256.87
2023-04-18T11:27:29.704Z,101252.60
2023-04-18T11:32:33.872Z,101246.59
2023-04-18T11:37:37.651Z,101240.58
2023-04-18T11:42:40.763Z,101234.48
2023-04-18T11:47:46.490Z,101232.02
2023-04-18T11:52:51.266Z,101223.89
2023-04-18T11:57:57.306Z,101217.55
2023-04-18T12:03:00.549Z,101211.11
2023-04-18T12:08:13.294Z,101203.52
2023-04-18T12:13:15.319Z,101197.52
2023-04-18T12:18:19.954Z,101202.25
2023-04-18T12:23:48.675Z,101201.16
2023-04-18T12:28:51.523Z,101195.55
2023-04-18T12:33:53.004Z,101188.46
2023-04-18T12:38:54.520Z,101185.86
2023-04-18T12:43:56.017Z,101177.44
2023-04-18T12:48:58.136Z,101170.49
2023-04-18T12:53:59.652Z,101169.73
2023-04-18T12:59:01.421Z,101168.80
2023-04-18T13:04:11.658Z,101170.62
2023-04-18T13:09:14.889Z,101160.48
2023-04-18T13:14:16.525Z,101156.17
2023-04-18T13:19:18.044Z,101154.19
2023-04-18T13:24:19.674Z,101149.85
2023-04-18T13:29:21.178Z,101149.45
2023-04-18T13:34:22.683Z,101143.59
2023-04-18T13:39:24.899Z,101145.94
2023-04-18T13:44:26.876Z,101142.13
2023-04-18T13:49:28.771Z,101135.91
2023-04-18T13:54:31.898Z,101139.65
2023-04-18T13:59:33.844Z,101134.52
2023-04-18T14:04:35.971Z,101125.21
2023-04-18T14:09:37.701Z,101127.86
2023-04-18T14:14:39.413Z,101128.12
2023-04-18T14:19:43.990Z,101123.57
2023-04-18T14:24:45.485Z,101119.55
2023-04-18T14:29:48.916Z,101119.70
2023-04-18T14:34:50.735Z,101116.11
2023-04-18T14:39:52.247Z,101113.70
2023-04-18T14:44:54.456Z,101109.80
2023-04-18T14:49:56.419Z,101111.14
2023-04-18T14:54:57.914Z,101107.91
2023-04-18T14:59:59.484Z,101105.38
2023-04-18T15:05:01.195Z,101101.09
2023-04-18T15:10:02.813Z,101098.71
2023-04-18T15:15:04.898Z,101099.23
2023-04-18T15:20:07.699Z,101098.54
2023-04-18T15:25:09.828Z,101095.50
2023-04-18T15:30:12.748Z,101098.51
2023-04-18T15:35:14.505Z,101098.58
2023-04-18T15:40:18.857Z,101096.27
2023-04-18T15:45:21.901Z,101096.48
2023-04-18T15:50:24.316Z,101100.86
2023-04-18T15:55:25.945Z,101099.48
2023-04-18T16:00:27.667Z,101097.52
2023-04-18T16:05:29.586Z,101098.91
2023-04-18T16:10:31.147Z,101095.38
2023-04-18T16:15:35.566Z,101096.64
2023-04-18T16:20:37.264Z,101090.84
2023-04-18T16:25:38.853Z,101093.01
2023-04-18T16:30:43.824Z,101089.66
2023-04-18T16:35:45.462Z,101089.12
2023-04-18T16:40:47.058Z,101090.04
2023-04-18T16:45:48.942Z,101082.70
2023-04-18T16:50:50.850Z,101080.74
2023-04-18T16:55:53.327Z,101080.57
2023-04-18T17:00:54.837Z,101076.77
2023-04-18T17:05:56.357Z,101074.60
2023-04-18T17:10:59.470Z,101072.79
2023-04-18T17:16:01.376Z,101075.10
2023-04-18T17:21:03.443Z,101076.56
2023-04-18T17:26:04.975Z,101077.34
2023-04-18T17:31:07.872Z,101078.19
2023-04-18T17:36:09.566Z,101078.41
2023-04-18T17:41:11.081Z,101076.42
2023-04-18T17:46:13.956Z,101075.05
2023-04-18T17:51:19.423Z,101073.98
2023-04-18T17:56:22.327Z,101073.99
2023-04-18T18:01:24.918Z,101073.63
2023-04-18T18:06:27.911Z,101073.23
2023-04-18T18:11:29.486Z,101073.87
2023-04-18T18:16:31.209Z,101068.95
2023-04-18T18:21:33.551Z,101065.09
2023-04-18T18:26:36.352Z,101060.67
2023-04-18T18:31:38.990Z,101056.92
2023-04-18T18:36:40.654Z,101054.73
2023-04-18T18:41:42.502Z,101046.02
2023-04-18T18:46:44.070Z,101047.98
2023-04-18T18:51:45.924Z,101047.40
2023-04-18T18:56:47.481Z,101039.84
2023-04-18T19:01:49.061Z,101043.09
2023-04-18T19:06:50.770Z,101036.94
2023-04-18T19:11:52.286Z,101033.38
2023-04-18T19:16:55.868Z,101023.94
2023-04-18T19:21:57.969Z,101020.38
2023-04-18T19:26:59.917Z,101018.76
2023-04-18T19:32:01.943Z,101018.64
2023-04-18T19:37:03.788Z,101013.17
2023-04-18T19:42:06.124Z,101010.35
2023-04-18T19:47:07.823Z,101008.52
2023-04-18T19:52:09.341Z,101007.48
2023-04-18T19:57:10.994Z,101003.16
2023-04-18T20:02:12.678Z,100999.73
2023-04-18T20:07:14.234Z,100995.61
2023-04-18T20:12:15.790Z,100991.67
2023-04-18T20:17:17.887Z,100982.84
2023-04-18T20:22:19.968Z,100980.40
2023-04-18T20:27:21.646Z,100972.77
2023-04-18T20:32:25.692Z,100975.00
2023-04-18T20:37:28.051Z,100963.91
2023-04-18T20:42:29.791Z,100964.60
2023-04-18T20:47:33.584Z,100954.98
2023-04-18T20:52:35.675Z,100953.35
2023-04-18T20:57:37.190Z,100952.50
2023-04-18T21:02:39.351Z,100948.67
2023-04-18T21:07:41.108Z,100943.89
2023-04-18T21:12:42.857Z,100937.00
2023-04-18T21:17:44.777Z,100931.65
2023-04-18T21:22:46.716Z,100929.42
2023-04-18T21:27:50.780Z,100926.19
2023-04-18T21:32:52.561Z,100920.23
2023-04-18T21:37:54.200Z,100919.10
2023-04-18T21:42:55.712Z,100914.85
2023-04-18T21:47:57.310Z,100911.51
2023-04-18T21:52:59.169Z,100907.63
2023-04-18T21:58:01.081Z,100903.17
2023-04-18T22:03:03.350Z,100901.29
2023-04-18T22:08:05.637Z,100895.83
2023-04-18T22:13:07.136Z,100894.05
2023-04-18T22:18:09.105Z,100890.52
2023-04-18T22:23:12.074Z,100890.29
2023-04-18T22:28:13.641Z,100885.05
2023-04-18T22:33:15.574Z,100880.13
2023-04-18T22:38:17.801Z,100878.70
2023-04-18T22:43:23.101Z,100874.70
2023-04-18T22:48:24.881Z,100876.14
2023-04-18T22:53:26.446Z,100876.35
2023-04-18T22:58:28.033Z,100873.71
2023-04-18T23:03:31.869Z,100873.39
2023-04-18T23:08:33.768Z,100865.33
2023-04-18T23:13:35.257Z,100859.81
2023-04-18T23:18:37.153Z,100857.55
2023-04-18T23:23:38.670Z,100850.59
2023-04-18T23:28:41.720Z,100844.06
2023-04-18T23:33:45.278Z,100834.89
2023-04-18T23:38:46.964Z,100825.99
2023-04-18T23:43:49.041Z,100821.71
2023-04-18T23:48:51.050Z,100819.79
2023-04-18T23:53:52.545Z,100812.67
2023-04-18T23:58:54.094Z,100805.72
